USY211 LIMC-LEBL
Flight info
| Callsign | USY211 |
|---|---|
| Flight time | N/A |
| Altitude | 33000 |
| Route | NEDED DCT GEKBA DCT VAMTU DCT KOLON DCT GANGU DCT PADKO DCT DIVKO DCT NILDU DCT BISBA |
| Aircraft | A343/H-SDE2E3FGHIJ4J5M1RWXY/LB1D1 |
Departure
| Time | 2026-05-01 08:46 |
|---|---|
| Airport | Milan Malpensa International Airport (LIMC) |
Arrival
| Time | N/A |
|---|---|
| Airport | Josep Tarradellas Barcelona-El Prat Airport (LEBL) |
| Time | Latitude | Longitude | Altitude | Speed | Heading |
|---|---|---|---|---|---|
| 2026-05-01 08:21 | 45.62003 | 8.71863 | 745 ft | 0 kts | 259° |
| 2026-05-01 08:35 | 45.62006 | 8.71887 | 741 ft | 4 kts | 258° |
| 2026-05-01 08:35 | 45.62012 | 8.71925 | 741 ft | 4 kts | 258° |
| 2026-05-01 08:35 | 45.62016 | 8.71955 | 741 ft | 4 kts | 262° |
| 2026-05-01 08:35 | 45.62015 | 8.71990 | 741 ft | 4 kts | 298° |
| 2026-05-01 08:36 | 45.62003 | 8.72009 | 741 ft | 1 kts | 335° |
| 2026-05-01 08:36 | 45.62022 | 8.72003 | 741 ft | 4 kts | 353° |
| 2026-05-01 08:36 | 45.62043 | 8.71998 | 743 ft | 0 kts | 349° |
| 2026-05-01 08:39 | 45.62045 | 8.71997 | 745 ft | 2 kts | 349° |
| 2026-05-01 08:40 | 45.62162 | 8.71980 | 741 ft | 10 kts | 26° |
| 2026-05-01 08:40 | 45.62187 | 8.72063 | 743 ft | 9 kts | 78° |
| 2026-05-01 08:40 | 45.62200 | 8.72157 | 745 ft | 10 kts | 78° |
| 2026-05-01 08:41 | 45.62213 | 8.72255 | 743 ft | 10 kts | 80° |
| 2026-05-01 08:41 | 45.62227 | 8.72358 | 743 ft | 12 kts | 79° |
| 2026-05-01 08:41 | 45.62244 | 8.72484 | 743 ft | 14 kts | 79° |
| 2026-05-01 08:41 | 45.62263 | 8.72622 | 745 ft | 14 kts | 79° |
| 2026-05-01 08:42 | 45.62282 | 8.72762 | 741 ft | 14 kts | 79° |
| 2026-05-01 08:42 | 45.62301 | 8.72902 | 743 ft | 14 kts | 79° |
| 2026-05-01 08:42 | 45.62281 | 8.73021 | 742 ft | 12 kts | 146° |
| 2026-05-01 08:42 | 45.62197 | 8.73048 | 745 ft | 13 kts | 169° |
| 2026-05-01 08:43 | 45.62111 | 8.73072 | 743 ft | 13 kts | 169° |
| 2026-05-01 08:43 | 45.62021 | 8.73096 | 744 ft | 13 kts | 169° |
| 2026-05-01 08:43 | 45.61929 | 8.73122 | 743 ft | 14 kts | 169° |
| 2026-05-01 08:43 | 45.61834 | 8.73148 | 743 ft | 14 kts | 169° |
| 2026-05-01 08:44 | 45.61739 | 8.73204 | 742 ft | 16 kts | 136° |
| 2026-05-01 08:44 | 45.61680 | 8.73334 | 742 ft | 16 kts | 124° |
| 2026-05-01 08:44 | 45.61617 | 8.73465 | 742 ft | 16 kts | 124° |
| 2026-05-01 08:44 | 45.61586 | 8.73609 | 745 ft | 16 kts | 84° |
| 2026-05-01 08:45 | 45.61647 | 8.73729 | 741 ft | 16 kts | 12° |
| 2026-05-01 08:45 | 45.61752 | 8.73701 | 742 ft | 16 kts | 348° |
| 2026-05-01 08:45 | 45.61945 | 8.73645 | 740 ft | 54 kts | 349° |
| 2026-05-01 08:45 | 45.62505 | 8.73494 | 744 ft | 107 kts | 348° |
| 2026-05-01 08:46 | 45.63395 | 8.73245 | 743 ft | 151 kts | 348° |
| 2026-05-01 08:46 | 45.64497 | 8.72935 | 1018 ft | 167 kts | 351° |
| 2026-05-01 08:46 | 45.65673 | 8.72592 | 1450 ft | 179 kts | 350° |
| 2026-05-01 08:46 | 45.66912 | 8.72791 | 1917 ft | 187 kts | 29° |
| 2026-05-01 08:47 | 45.67762 | 8.74158 | 2451 ft | 189 kts | 71° |
| 2026-05-01 08:47 | 45.68274 | 8.75874 | 2986 ft | 190 kts | 69° |
| 2026-05-01 08:47 | 45.68793 | 8.77602 | 3549 ft | 188 kts | 69° |
| 2026-05-01 08:47 | 45.69293 | 8.79317 | 4053 ft | 187 kts | 68° |
| 2026-05-01 08:48 | 45.69815 | 8.81065 | 4400 ft | 195 kts | 61° |
| 2026-05-01 08:48 | 45.70844 | 8.82382 | 4692 ft | 207 kts | 34° |
| 2026-05-01 08:48 | 45.71907 | 8.83814 | 5165 ft | 213 kts | 53° |
| 2026-05-01 08:48 | 45.72507 | 8.85743 | 5693 ft | 221 kts | 79° |
| 2026-05-01 08:49 | 45.72364 | 8.87959 | 6125 ft | 232 kts | 109° |
| 2026-05-01 08:49 | 45.71749 | 8.90130 | 6602 ft | 240 kts | 120° |
| 2026-05-01 08:49 | 45.70569 | 8.91851 | 7131 ft | 248 kts | 148° |
| 2026-05-01 08:49 | 45.68924 | 8.92608 | 7711 ft | 252 kts | 176° |
| 2026-05-01 08:50 | 45.67197 | 8.92252 | 8306 ft | 254 kts | 202° |
| 2026-05-01 08:50 | 45.65721 | 8.90879 | 8896 ft | 256 kts | 227° |
| 2026-05-01 08:50 | 45.64773 | 8.88731 | 9395 ft | 259 kts | 252° |
| 2026-05-01 08:50 | 45.64456 | 8.86234 | 9947 ft | 260 kts | 268° |
| 2026-05-01 08:51 | 45.64370 | 8.83630 | 10452 ft | 265 kts | 270° |
| 2026-05-01 08:51 | 45.64306 | 8.80987 | 10950 ft | 268 kts | 269° |
| 2026-05-01 08:51 | 45.64232 | 8.78312 | 11462 ft | 270 kts | 269° |
| 2026-05-01 08:51 | 45.64147 | 8.75596 | 11923 ft | 276 kts | 269° |
| 2026-05-01 08:52 | 45.63847 | 8.72852 | 12322 ft | 286 kts | 253° |
| 2026-05-01 08:52 | 45.63123 | 8.70114 | 12570 ft | 301 kts | 248° |
| 2026-05-01 08:52 | 45.62263 | 8.67301 | 12798 ft | 316 kts | 247° |
| 2026-05-01 08:52 | 45.61357 | 8.64369 | 13059 ft | 330 kts | 247° |
| 2026-05-01 08:53 | 45.60415 | 8.61296 | 13301 ft | 343 kts | 247° |
| 2026-05-01 08:53 | 45.59454 | 8.58153 | 13555 ft | 356 kts | 247° |
| 2026-05-01 08:53 | 45.58450 | 8.54859 | 13790 ft | 368 kts | 247° |
| 2026-05-01 08:53 | 45.57411 | 8.51447 | 14012 ft | 379 kts | 247° |
| 2026-05-01 08:54 | 45.56203 | 8.48039 | 14224 ft | 391 kts | 237° |
| 2026-05-01 08:54 | 45.54376 | 8.45128 | 14464 ft | 398 kts | 217° |
| 2026-05-01 08:54 | 45.51962 | 8.43164 | 14793 ft | 400 kts | 200° |
| 2026-05-01 08:54 | 45.49335 | 8.41796 | 15166 ft | 403 kts | 197° |
| 2026-05-01 08:55 | 45.46707 | 8.40525 | 15556 ft | 406 kts | 197° |
| 2026-05-01 08:55 | 45.44011 | 8.39219 | 15952 ft | 410 kts | 197° |
| 2026-05-01 08:55 | 45.41303 | 8.37896 | 16363 ft | 413 kts | 197° |
| 2026-05-01 08:55 | 45.38575 | 8.36557 | 16782 ft | 415 kts | 197° |
| 2026-05-01 08:56 | 45.35836 | 8.35209 | 17210 ft | 418 kts | 197° |
| 2026-05-01 08:56 | 45.33074 | 8.33849 | 17623 ft | 421 kts | 197° |
| 2026-05-01 08:56 | 45.30295 | 8.32480 | 18052 ft | 424 kts | 197° |
| 2026-05-01 08:56 | 45.27496 | 8.31103 | 18502 ft | 427 kts | 197° |
| 2026-05-01 08:57 | 45.24680 | 8.29719 | 18914 ft | 430 kts | 197° |
| 2026-05-01 08:57 | 45.21845 | 8.28326 | 19311 ft | 432 kts | 197° |
| 2026-05-01 08:57 | 45.19031 | 8.26945 | 19700 ft | 435 kts | 197° |
| 2026-05-01 08:57 | 45.16156 | 8.25536 | 20101 ft | 437 kts | 197° |
| 2026-05-01 08:58 | 45.13271 | 8.24123 | 20500 ft | 440 kts | 197° |
| 2026-05-01 08:58 | 45.10321 | 8.22900 | 20880 ft | 441 kts | 190° |
| 2026-05-01 08:58 | 45.07294 | 8.22144 | 21268 ft | 443 kts | 187° |
| 2026-05-01 08:58 | 45.05276 | 8.21711 | 21507 ft | 445 kts | 186° |
| 2026-05-01 08:59 | 45.02207 | 8.21063 | 21887 ft | 447 kts | 186° |
| 2026-05-01 08:59 | 44.98105 | 8.20193 | 22406 ft | 450 kts | 186° |
| 2026-05-01 08:59 | 44.96011 | 8.19745 | 22652 ft | 452 kts | 186° |
| 2026-05-01 08:59 | 44.91876 | 8.18860 | 23152 ft | 455 kts | 186° |
| 2026-05-01 09:00 | 44.89747 | 8.18404 | 23403 ft | 457 kts | 186° |
| 2026-05-01 09:00 | 44.86632 | 8.17738 | 23736 ft | 460 kts | 186° |
| 2026-05-01 09:00 | 44.83450 | 8.17057 | 24066 ft | 462 kts | 186° |
| 2026-05-01 09:00 | 44.80265 | 8.16375 | 24375 ft | 465 kts | 187° |
| 2026-05-01 09:01 | 44.77062 | 8.15689 | 24688 ft | 466 kts | 187° |
| 2026-05-01 09:01 | 44.73840 | 8.14998 | 24989 ft | 468 kts | 187° |
| 2026-05-01 09:01 | 44.70642 | 8.14051 | 25297 ft | 472 kts | 195° |
| 2026-05-01 09:01 | 44.67569 | 8.12388 | 25578 ft | 476 kts | 206° |
| 2026-05-01 09:02 | 44.64643 | 8.10195 | 25882 ft | 478 kts | 209° |
| 2026-05-01 09:02 | 44.61779 | 8.07800 | 26186 ft | 480 kts | 211° |
| 2026-05-01 09:02 | 44.58942 | 8.05311 | 26485 ft | 481 kts | 212° |
| 2026-05-01 09:02 | 44.56141 | 8.02827 | 26774 ft | 483 kts | 212° |
| 2026-05-01 09:03 | 44.53287 | 8.00308 | 27079 ft | 485 kts | 212° |
| 2026-05-01 09:03 | 44.50416 | 7.97802 | 27389 ft | 486 kts | 211° |
| 2026-05-01 09:03 | 44.47533 | 7.95315 | 27760 ft | 485 kts | 211° |
| 2026-05-01 09:03 | 44.44658 | 7.92853 | 28200 ft | 484 kts | 211° |
| 2026-05-01 09:04 | 44.41779 | 7.90398 | 28468 ft | 486 kts | 211° |
| 2026-05-01 09:04 | 44.38885 | 7.87938 | 28720 ft | 488 kts | 211° |
| 2026-05-01 09:04 | 44.35972 | 7.85466 | 28974 ft | 490 kts | 211° |
| 2026-05-01 09:04 | 44.33087 | 7.83020 | 29250 ft | 492 kts | 211° |
| 2026-05-01 09:05 | 44.30153 | 7.80532 | 29530 ft | 494 kts | 211° |
| 2026-05-01 09:05 | 44.27278 | 7.77883 | 29771 ft | 495 kts | 217° |
| 2026-05-01 09:05 | 44.24601 | 7.74858 | 30108 ft | 495 kts | 220° |
| 2026-05-01 09:05 | 44.21991 | 7.71746 | 30521 ft | 493 kts | 221° |
| 2026-05-01 09:06 | 44.19411 | 7.68590 | 30860 ft | 492 kts | 222° |
| 2026-05-01 09:06 | 44.16875 | 7.65455 | 31177 ft | 491 kts | 222° |
| 2026-05-01 09:06 | 44.14414 | 7.62158 | 31496 ft | 490 kts | 229° |
| 2026-05-01 09:06 | 44.12120 | 7.58642 | 31817 ft | 489 kts | 229° |
| 2026-05-01 09:07 | 44.09881 | 7.55110 | 32295 ft | 484 kts | 230° |
| 2026-05-01 09:07 | 44.07701 | 7.51628 | 32705 ft | 481 kts | 230° |
| 2026-05-01 09:07 | 44.05512 | 7.48112 | 33013 ft | 481 kts | 230° |
| 2026-05-01 09:07 | 44.03315 | 7.44583 | 33289 ft | 481 kts | 230° |
| 2026-05-01 09:08 | 43.98930 | 7.37566 | 33340 ft | 480 kts | 230° |
| 2026-05-01 09:08 | 43.94544 | 7.30588 | 33330 ft | 480 kts | 230° |
| 2026-05-01 09:09 | 43.90167 | 7.23651 | 33324 ft | 480 kts | 230° |
| 2026-05-01 09:09 | 43.85768 | 7.16694 | 33322 ft | 480 kts | 230° |
| 2026-05-01 09:10 | 43.81362 | 7.09746 | 33324 ft | 480 kts | 230° |
| 2026-05-01 09:10 | 43.76973 | 7.02839 | 33322 ft | 480 kts | 231° |
| 2026-05-01 09:11 | 43.72784 | 6.95684 | 33323 ft | 477 kts | 240° |
| 2026-05-01 09:11 | 43.69853 | 6.87516 | 33323 ft | 474 kts | 249° |